Home   Weather   France   Grenoble   Past weeks
Flag for France

Past Weather in Grenoble, Auvergne-Rhône-Alpes, France — Yesterday and Last 2 Weeks

Currently: 77 °F. Partly sunny. (Weather station: Grenoble / St. Geoirs, France). See more current weather

Past Weather in Grenoble — Graph

°F

Grenoble Temperature Yesterday

Maximum temperature yesterday: 82 °F (at 5:30 pm)
Minimum temperature yesterday: 59 °F (at 1:00 am)
Average temperature yesterday: 70 °F

High & Low Weather Summary for the Past Weeks

 TemperatureHumidityPressure
High88 °F (Jul 23, 3:30 pm)100% (Jul 15, 6:00 pm)30.15 "Hg (Jul 15, 6:00 pm)
Low54 °F (Jul 22, 5:30 am)37% (Jul 22, 6:00 pm)29.83 "Hg (Jul 24, 12:30 pm)
Average69 °F73%30.01 "Hg
* Reported Jul 15 12:00 pm — Jul 30 12:00 pm, Grenoble. Weather by CustomWeather, © 2021

Note: Actual official high and low records may vary slightly from our data, if they occured in-between our weather recording intervals... More about our weather records

Grenoble Weather History for the Previous 24 Hours

Scroll right to see more
 ConditionsComfort  
Time TempWeatherWind HumidityBarometerVisibility
12:00 pm
Fri, Jul 30
77 °FSunny.2 mph65%29.95 "Hg10 mi
10:30 am72 °FMild.7 mph83%29.95 "HgN/A
10:00 am70 °FPartly sunny.8 mph83%29.92 "HgN/A
9:30 am68 °FLight rain. More clouds than sun.6 mph83%29.92 "HgN/A
9:00 am68 °FMild.2 mph83%29.95 "HgN/A
8:30 am68 °FSunny.1 mph88%29.95 "Hg10 mi
8:00 am66 °FSunny.2 mph94%29.95 "Hg10 mi
7:30 am66 °FSunny.6 mph88%29.95 "Hg10 mi
7:00 am64 °FSunny.6 mph94%29.92 "Hg10 mi
6:30 am63 °FSunny.8 mph94%29.92 "Hg10 mi
6:00 am63 °FPassing clouds.6 mph94%29.92 "HgN/A
5:30 am61 °FClear.6 mph94%29.92 "Hg10 mi
5:00 am63 °FClear.3 mph94%29.92 "Hg10 mi
4:30 am63 °FClear.2 mph88%29.92 "Hg10 mi
4:00 am63 °FClear.6 mph94%29.92 "Hg10 mi
3:30 am63 °FClear.8 mph94%29.92 "Hg10 mi
3:00 am63 °FPassing clouds.3 mph94%29.92 "HgN/A
2:30 am63 °FClear.3 mph88%29.92 "Hg10 mi
2:00 am63 °FClear.6 mph88%29.92 "Hg10 mi
1:30 am64 °FClear.5 mph88%29.95 "Hg10 mi
1:00 am64 °FClear.6 mph94%29.95 "Hg10 mi
12:30 am64 °FClear.2 mph88%29.95 "Hg10 mi
12:00 am64 °FClear.3 mph88%29.95 "Hg10 mi
11:30 pm
Thu, Jul 29
64 °FClear.5 mph88%29.95 "Hg10 mi
11:00 pm66 °FClear.3 mph83%29.95 "Hg10 mi
10:30 pm68 °FClear.2 mph83%29.95 "Hg10 mi
10:00 pm70 °FClear.5 mph78%29.95 "Hg10 mi
9:30 pm70 °FClear.6 mph73%29.95 "HgN/A
9:00 pm72 °FPassing clouds.6 mph73%29.95 "HgN/A
8:30 pm75 °FSunny.7 mph61%29.92 "Hg10 mi
8:00 pm79 °FSunny.6 mph58%29.92 "Hg10 mi
7:30 pm82 °FSunny.2 mph45%29.95 "Hg10 mi
7:00 pm82 °FPassing clouds.3 mph42%29.95 "HgN/A
6:30 pm82 °FSunny.2 mph42%29.95 "Hg10 mi
6:00 pm82 °FSunny.3 mph42%29.95 "Hg10 mi
5:30 pm82 °FPassing clouds.5 mph48%29.95 "HgN/A
5:00 pm81 °FPassing clouds.6 mph51%29.98 "HgN/A
4:30 pm81 °FPassing clouds.6 mph51%29.98 "HgN/A
4:00 pm81 °FSunny.3 mph51%29.98 "Hg10 mi
3:30 pm81 °FSunny.3 mph48%29.98 "Hg10 mi
3:00 pm79 °FSunny.6 mph51%30.01 "Hg10 mi
2:30 pm79 °FPassing clouds.5 mph54%30.01 "HgN/A
2:00 pm77 °FSunny.3 mph57%30.01 "Hg10 mi
Weather by CustomWeather, © 2021

See weather overview